sensor_id;sensor_type;location;lat;lon;timestamp;pressure;altitude;pressure_sealevel;temperature
11792;BMP180;5953;52.372;9.918;2023-04-24T00:00:47;99357.00;;;17.10
11792;BMP180;5953;52.372;9.918;2023-04-24T00:03:15;99350.00;;;17.10
11792;BMP180;5953;52.372;9.918;2023-04-24T00:05:43;99340.00;;;17.00
11792;BMP180;5953;52.372;9.918;2023-04-24T00:08:13;99353.00;;;17.10
11792;BMP180;5953;52.372;9.918;2023-04-24T00:10:41;99346.00;;;16.90
11792;BMP180;5953;52.372;9.918;2023-04-24T00:13:09;99357.00;;;16.80
11792;BMP180;5953;52.372;9.918;2023-04-24T00:15:37;99361.00;;;16.80
11792;BMP180;5953;52.372;9.918;2023-04-24T00:18:05;99349.00;;;16.80
11792;BMP180;5953;52.372;9.918;2023-04-24T00:20:32;99347.00;;;16.80
11792;BMP180;5953;52.372;9.918;2023-04-24T00:23:02;99350.00;;;16.80
11792;BMP180;5953;52.372;9.918;2023-04-24T00:25:31;99341.00;;;16.80
11792;BMP180;5953;52.372;9.918;2023-04-24T00:27:59;99348.00;;;16.80
11792;BMP180;5953;52.372;9.918;2023-04-24T00:30:27;99341.00;;;16.80
11792;BMP180;5953;52.372;9.918;2023-04-24T00:32:55;99339.00;;;17.00
11792;BMP180;5953;52.372;9.918;2023-04-24T00:35:23;99346.00;;;17.00
11792;BMP180;5953;52.372;9.918;2023-04-24T00:37:51;99340.00;;;17.10
11792;BMP180;5953;52.372;9.918;2023-04-24T00:40:19;99340.00;;;17.10
11792;BMP180;5953;52.372;9.918;2023-04-24T00:42:48;99338.00;;;17.10
11792;BMP180;5953;52.372;9.918;2023-04-24T00:45:16;99358.00;;;17.10
11792;BMP180;5953;52.372;9.918;2023-04-24T00:47:45;99358.00;;;17.00
11792;BMP180;5953;52.372;9.918;2023-04-24T00:50:15;99350.00;;;17.00
11792;BMP180;5953;52.372;9.918;2023-04-24T00:52:43;99359.00;;;16.90
11792;BMP180;5953;52.372;9.918;2023-04-24T00:55:11;99347.00;;;16.70
11792;BMP180;5953;52.372;9.918;2023-04-24T00:57:39;99365.00;;;16.60
11792;BMP180;5953;52.372;9.918;2023-04-24T01:00:09;99369.00;;;16.50
11792;BMP180;5953;52.372;9.918;2023-04-24T01:02:39;99369.00;;;16.50
11792;BMP180;5953;52.372;9.918;2023-04-24T01:05:11;99359.00;;;16.60
11792;BMP180;5953;52.372;9.918;2023-04-24T01:07:41;99366.00;;;16.70
11792;BMP180;5953;52.372;9.918;2023-04-24T01:10:15;99346.00;;;16.70
11792;BMP180;5953;52.372;9.918;2023-04-24T01:12:43;99348.00;;;16.30
11792;BMP180;5953;52.372;9.918;2023-04-24T01:15:13;99334.00;;;16.40
11792;BMP180;5953;52.372;9.918;2023-04-24T01:17:40;99331.00;;;16.10
11792;BMP180;5953;52.372;9.918;2023-04-24T01:20:09;99334.00;;;16.10
11792;BMP180;5953;52.372;9.918;2023-04-24T01:22:39;99335.00;;;16.00
11792;BMP180;5953;52.372;9.918;2023-04-24T01:25:08;99326.00;;;15.70
11792;BMP180;5953;52.372;9.918;2023-04-24T01:27:36;99336.00;;;15.90
11792;BMP180;5953;52.372;9.918;2023-04-24T01:30:05;99331.00;;;15.90
11792;BMP180;5953;52.372;9.918;2023-04-24T01:32:33;99311.00;;;16.00
11792;BMP180;5953;52.372;9.918;2023-04-24T01:35:02;99338.00;;;15.90
11792;BMP180;5953;52.372;9.918;2023-04-24T01:37:30;99326.00;;;16.00
11792;BMP180;5953;52.372;9.918;2023-04-24T01:40:00;99325.00;;;16.00
11792;BMP180;5953;52.372;9.918;2023-04-24T01:42:28;99322.00;;;15.80
11792;BMP180;5953;52.372;9.918;2023-04-24T01:44:56;99317.00;;;15.60
11792;BMP180;5953;52.372;9.918;2023-04-24T01:47:24;99324.00;;;15.60
11792;BMP180;5953;52.372;9.918;2023-04-24T01:49:53;99319.00;;;15.80
11792;BMP180;5953;52.372;9.918;2023-04-24T01:52:20;99320.00;;;15.70
11792;BMP180;5953;52.372;9.918;2023-04-24T01:54:48;99326.00;;;15.70
11792;BMP180;5953;52.372;9.918;2023-04-24T01:57:17;99332.00;;;15.60
11792;BMP180;5953;52.372;9.918;2023-04-24T01:59:45;99324.00;;;15.90
11792;BMP180;5953;52.372;9.918;2023-04-24T02:02:13;99315.00;;;15.80
11792;BMP180;5953;52.372;9.918;2023-04-24T02:04:41;99325.00;;;15.80
11792;BMP180;5953;52.372;9.918;2023-04-24T02:07:09;99322.00;;;15.60
11792;BMP180;5953;52.372;9.918;2023-04-24T02:09:37;99321.00;;;15.70
11792;BMP180;5953;52.372;9.918;2023-04-24T02:12:04;99312.00;;;15.70
11792;BMP180;5953;52.372;9.918;2023-04-24T02:14:34;99309.00;;;15.70
11792;BMP180;5953;52.372;9.918;2023-04-24T02:17:01;99307.00;;;15.80
11792;BMP180;5953;52.372;9.918;2023-04-24T02:19:29;99300.00;;;15.80
11792;BMP180;5953;52.372;9.918;2023-04-24T02:21:57;99304.00;;;15.00
11792;BMP180;5953;52.372;9.918;2023-04-24T02:24:25;99308.00;;;15.80
11792;BMP180;5953;52.372;9.918;2023-04-24T02:26:52;99287.00;;;15.80
11792;BMP180;5953;52.372;9.918;2023-04-24T02:29:20;99307.00;;;15.60
11792;BMP180;5953;52.372;9.918;2023-04-24T02:31:49;99305.00;;;15.80
11792;BMP180;5953;52.372;9.918;2023-04-24T02:34:17;99308.00;;;15.80
11792;BMP180;5953;52.372;9.918;2023-04-24T02:36:45;99310.00;;;15.50
11792;BMP180;5953;52.372;9.918;2023-04-24T02:39:13;99306.00;;;15.20
11792;BMP180;5953;52.372;9.918;2023-04-24T02:41:43;99310.00;;;15.70
11792;BMP180;5953;52.372;9.918;2023-04-24T02:44:11;99313.00;;;15.80
11792;BMP180;5953;52.372;9.918;2023-04-24T02:46:39;99311.00;;;15.70
11792;BMP180;5953;52.372;9.918;2023-04-24T02:49:08;99321.00;;;15.60
11792;BMP180;5953;52.372;9.918;2023-04-24T02:51:38;99311.00;;;15.40
11792;BMP180;5953;52.372;9.918;2023-04-24T02:54:07;99309.00;;;15.60
11792;BMP180;5953;52.372;9.918;2023-04-24T02:56:36;99321.00;;;15.70
11792;BMP180;5953;52.372;9.918;2023-04-24T02:59:04;99311.00;;;15.60
11792;BMP180;5953;52.372;9.918;2023-04-24T03:01:32;99312.00;;;15.60
11792;BMP180;5953;52.372;9.918;2023-04-24T03:04:00;99304.00;;;15.70
11792;BMP180;5953;52.372;9.918;2023-04-24T03:06:29;99308.00;;;15.60
11792;BMP180;5953;52.372;9.918;2023-04-24T03:08:57;99305.00;;;15.50
11792;BMP180;5953;52.372;9.918;2023-04-24T03:11:25;99306.00;;;15.70
11792;BMP180;5953;52.372;9.918;2023-04-24T03:13:53;99307.00;;;15.70
11792;BMP180;5953;52.372;9.918;2023-04-24T03:16:20;99295.00;;;15.70
11792;BMP180;5953;52.372;9.918;2023-04-24T03:18:48;99295.00;;;15.70
11792;BMP180;5953;52.372;9.918;2023-04-24T03:21:16;99291.00;;;15.50
11792;BMP180;5953;52.372;9.918;2023-04-24T03:23:45;99298.00;;;15.40
11792;BMP180;5953;52.372;9.918;2023-04-24T03:26:13;99294.00;;;15.00
11792;BMP180;5953;52.372;9.918;2023-04-24T03:28:41;99291.00;;;15.00
11792;BMP180;5953;52.372;9.918;2023-04-24T03:31:09;99299.00;;;15.10
11792;BMP180;5953;52.372;9.918;2023-04-24T03:33:36;99288.00;;;15.10
11792;BMP180;5953;52.372;9.918;2023-04-24T03:36:04;99286.00;;;14.70
11792;BMP180;5953;52.372;9.918;2023-04-24T03:38:32;99292.00;;;15.10
11792;BMP180;5953;52.372;9.918;2023-04-24T03:41:01;99287.00;;;14.80
11792;BMP180;5953;52.372;9.918;2023-04-24T03:43:29;99298.00;;;14.80
11792;BMP180;5953;52.372;9.918;2023-04-24T03:45:59;99287.00;;;15.10
11792;BMP180;5953;52.372;9.918;2023-04-24T03:48:27;99289.00;;;14.70
11792;BMP180;5953;52.372;9.918;2023-04-24T03:50:55;99289.00;;;14.70
11792;BMP180;5953;52.372;9.918;2023-04-24T03:53:23;99280.00;;;14.60
11792;BMP180;5953;52.372;9.918;2023-04-24T03:55:51;99274.00;;;14.70
11792;BMP180;5953;52.372;9.918;2023-04-24T03:58:20;99271.00;;;14.60
11792;BMP180;5953;52.372;9.918;2023-04-24T04:00:47;99277.00;;;14.70
11792;BMP180;5953;52.372;9.918;2023-04-24T04:03:16;99271.00;;;14.80
11792;BMP180;5953;52.372;9.918;2023-04-24T04:05:44;99250.00;;;14.80
11792;BMP180;5953;52.372;9.918;2023-04-24T04:08:12;99275.00;;;14.50
11792;BMP180;5953;52.372;9.918;2023-04-24T04:10:40;99287.00;;;14.80
11792;BMP180;5953;52.372;9.918;2023-04-24T04:13:07;99276.00;;;14.70
11792;BMP180;5953;52.372;9.918;2023-04-24T04:15:36;99278.00;;;14.80
11792;BMP180;5953;52.372;9.918;2023-04-24T04:18:04;99275.00;;;14.70
11792;BMP180;5953;52.372;9.918;2023-04-24T04:20:32;99280.00;;;14.60
11792;BMP180;5953;52.372;9.918;2023-04-24T04:23:00;99285.00;;;14.80
11792;BMP180;5953;52.372;9.918;2023-04-24T04:25:27;99282.00;;;14.80
11792;BMP180;5953;52.372;9.918;2023-04-24T04:27:55;99278.00;;;14.80
11792;BMP180;5953;52.372;9.918;2023-04-24T04:30:24;99267.00;;;14.50
11792;BMP180;5953;52.372;9.918;2023-04-24T04:32:53;99269.00;;;14.80
11792;BMP180;5953;52.372;9.918;2023-04-24T04:35:21;99262.00;;;14.70
11792;BMP180;5953;52.372;9.918;2023-04-24T04:37:49;99270.00;;;14.70
11792;BMP180;5953;52.372;9.918;2023-04-24T04:40:17;99257.00;;;14.50
11792;BMP180;5953;52.372;9.918;2023-04-24T04:42:45;99273.00;;;14.60
11792;BMP180;5953;52.372;9.918;2023-04-24T04:45:14;99275.00;;;14.40
11792;BMP180;5953;52.372;9.918;2023-04-24T04:47:43;99283.00;;;14.70
11792;BMP180;5953;52.372;9.918;2023-04-24T04:50:13;99288.00;;;14.30
11792;BMP180;5953;52.372;9.918;2023-04-24T04:52:41;99285.00;;;14.60
11792;BMP180;5953;52.372;9.918;2023-04-24T04:55:09;99285.00;;;14.70
11792;BMP180;5953;52.372;9.918;2023-04-24T04:57:39;99285.00;;;14.90
11792;BMP180;5953;52.372;9.918;2023-04-24T05:00:08;99293.00;;;14.90
11792;BMP180;5953;52.372;9.918;2023-04-24T05:02:38;99289.00;;;15.00
11792;BMP180;5953;52.372;9.918;2023-04-24T05:05:08;99289.00;;;15.00
11792;BMP180;5953;52.372;9.918;2023-04-24T05:07:37;99294.00;;;14.90
11792;BMP180;5953;52.372;9.918;2023-04-24T05:10:06;99289.00;;;15.00
11792;BMP180;5953;52.372;9.918;2023-04-24T05:12:34;99296.00;;;15.00
11792;BMP180;5953;52.372;9.918;2023-04-24T05:15:02;99304.00;;;15.00
11792;BMP180;5953;52.372;9.918;2023-04-24T05:17:30;99293.00;;;14.80
11792;BMP180;5953;52.372;9.918;2023-04-24T05:19:58;99294.00;;;14.80
11792;BMP180;5953;52.372;9.918;2023-04-24T05:22:27;99281.00;;;14.80
11792;BMP180;5953;52.372;9.918;2023-04-24T05:24:56;99287.00;;;14.80
11792;BMP180;5953;52.372;9.918;2023-04-24T05:27:24;99295.00;;;14.80
11792;BMP180;5953;52.372;9.918;2023-04-24T05:29:52;99292.00;;;14.70
11792;BMP180;5953;52.372;9.918;2023-04-24T05:32:20;99297.00;;;14.70
11792;BMP180;5953;52.372;9.918;2023-04-24T05:34:48;99296.00;;;14.90
11792;BMP180;5953;52.372;9.918;2023-04-24T05:37:16;99299.00;;;14.70
11792;BMP180;5953;52.372;9.918;2023-04-24T05:39:43;99267.00;;;15.00
11792;BMP180;5953;52.372;9.918;2023-04-24T05:42:13;99305.00;;;14.80
11792;BMP180;5953;52.372;9.918;2023-04-24T05:44:40;99306.00;;;14.80
11792;BMP180;5953;52.372;9.918;2023-04-24T05:47:08;99309.00;;;14.90
11792;BMP180;5953;52.372;9.918;2023-04-24T05:49:36;99298.00;;;15.00
11792;BMP180;5953;52.372;9.918;2023-04-24T05:52:04;99309.00;;;14.90
11792;BMP180;5953;52.372;9.918;2023-04-24T05:54:35;99307.00;;;15.10
11792;BMP180;5953;52.372;9.918;2023-04-24T05:57:03;99297.00;;;14.90
11792;BMP180;5953;52.372;9.918;2023-04-24T05:59:36;99271.00;;;15.10
11792;BMP180;5953;52.372;9.918;2023-04-24T06:02:05;99305.00;;;14.90
11792;BMP180;5953;52.372;9.918;2023-04-24T06:04:33;99280.00;;;15.40
11792;BMP180;5953;52.372;9.918;2023-04-24T06:07:02;99308.00;;;15.10
11792;BMP180;5953;52.372;9.918;2023-04-24T06:09:29;99314.00;;;15.40
11792;BMP180;5953;52.372;9.918;2023-04-24T06:11:57;99304.00;;;15.30
11792;BMP180;5953;52.372;9.918;2023-04-24T06:14:26;99271.00;;;15.10
11792;BMP180;5953;52.372;9.918;2023-04-24T06:16:55;99300.00;;;15.40
11792;BMP180;5953;52.372;9.918;2023-04-24T06:19:23;99271.00;;;15.50
11792;BMP180;5953;52.372;9.918;2023-04-24T06:21:51;99318.00;;;15.50
11792;BMP180;5953;52.372;9.918;2023-04-24T06:24:19;99323.00;;;15.40
11792;BMP180;5953;52.372;9.918;2023-04-24T06:26:47;99334.00;;;15.20
11792;BMP180;5953;52.372;9.918;2023-04-24T06:29:15;99327.00;;;15.10
11792;BMP180;5953;52.372;9.918;2023-04-24T06:31:43;99326.00;;;15.10
11792;BMP180;5953;52.372;9.918;2023-04-24T06:34:12;99333.00;;;14.90
11792;BMP180;5953;52.372;9.918;2023-04-24T06:36:41;99333.00;;;14.90
11792;BMP180;5953;52.372;9.918;2023-04-24T06:39:09;99322.00;;;15.00
11792;BMP180;5953;52.372;9.918;2023-04-24T06:41:36;99328.00;;;15.00
11792;BMP180;5953;52.372;9.918;2023-04-24T06:44:04;99325.00;;;15.00
11792;BMP180;5953;52.372;9.918;2023-04-24T06:46:32;99325.00;;;15.00
11792;BMP180;5953;52.372;9.918;2023-04-24T06:49:00;99336.00;;;14.90
11792;BMP180;5953;52.372;9.918;2023-04-24T06:51:29;99336.00;;;14.90
11792;BMP180;5953;52.372;9.918;2023-04-24T06:53:59;99340.00;;;15.00
11792;BMP180;5953;52.372;9.918;2023-04-24T06:56:27;99341.00;;;15.00
11792;BMP180;5953;52.372;9.918;2023-04-24T06:58:56;99355.00;;;15.00
11792;BMP180;5953;52.372;9.918;2023-04-24T07:01:24;99344.00;;;15.10
11792;BMP180;5953;52.372;9.918;2023-04-24T07:03:52;99354.00;;;15.10
11792;BMP180;5953;52.372;9.918;2023-04-24T07:06:20;99344.00;;;14.90
11792;BMP180;5953;52.372;9.918;2023-04-24T07:08:52;99347.00;;;14.90
11792;BMP180;5953;52.372;9.918;2023-04-24T07:11:21;99361.00;;;15.10
11792;BMP180;5953;52.372;9.918;2023-04-24T07:13:49;99352.00;;;15.10
11792;BMP180;5953;52.372;9.918;2023-04-24T07:16:17;99348.00;;;15.20
11792;BMP180;5953;52.372;9.918;2023-04-24T07:18:45;99357.00;;;15.20
11792;BMP180;5953;52.372;9.918;2023-04-24T07:21:12;99362.00;;;14.80
11792;BMP180;5953;52.372;9.918;2023-04-24T07:23:40;99354.00;;;14.90
11792;BMP180;5953;52.372;9.918;2023-04-24T07:26:10;99333.00;;;15.10
11792;BMP180;5953;52.372;9.918;2023-04-24T07:28:38;99367.00;;;14.90
11792;BMP180;5953;52.372;9.918;2023-04-24T07:31:06;99361.00;;;15.00
11792;BMP180;5953;52.372;9.918;2023-04-24T07:33:34;99356.00;;;14.90
11792;BMP180;5953;52.372;9.918;2023-04-24T07:36:03;99360.00;;;15.10
11792;BMP180;5953;52.372;9.918;2023-04-24T07:38:31;99364.00;;;14.90
11792;BMP180;5953;52.372;9.918;2023-04-24T07:40:59;99364.00;;;15.40
11792;BMP180;5953;52.372;9.918;2023-04-24T07:43:28;99361.00;;;15.60
11792;BMP180;5953;52.372;9.918;2023-04-24T07:45:56;99363.00;;;15.50
11792;BMP180;5953;52.372;9.918;2023-04-24T07:48:24;99364.00;;;15.80
11792;BMP180;5953;52.372;9.918;2023-04-24T07:50:52;99352.00;;;15.60
11792;BMP180;5953;52.372;9.918;2023-04-24T07:53:20;99358.00;;;15.90
11792;BMP180;5953;52.372;9.918;2023-04-24T07:55:48;99372.00;;;16.10
11792;BMP180;5953;52.372;9.918;2023-04-24T07:58:16;99368.00;;;16.30
11792;BMP180;5953;52.372;9.918;2023-04-24T08:00:45;99364.00;;;16.00
11792;BMP180;5953;52.372;9.918;2023-04-24T08:03:13;99364.00;;;16.30
11792;BMP180;5953;52.372;9.918;2023-04-24T08:05:41;99367.00;;;16.40
11792;BMP180;5953;52.372;9.918;2023-04-24T08:08:09;99371.00;;;16.20
11792;BMP180;5953;52.372;9.918;2023-04-24T08:10:37;99372.00;;;16.60
11792;BMP180;5953;52.372;9.918;2023-04-24T08:13:05;99376.00;;;16.60
11792;BMP180;5953;52.372;9.918;2023-04-24T08:15:33;99381.00;;;16.40
11792;BMP180;5953;52.372;9.918;2023-04-24T08:18:02;99379.00;;;16.70
11792;BMP180;5953;52.372;9.918;2023-04-24T08:20:29;99385.00;;;16.80
11792;BMP180;5953;52.372;9.918;2023-04-24T08:22:57;99384.00;;;16.80
11792;BMP180;5953;52.372;9.918;2023-04-24T08:25:25;99404.00;;;16.80
11792;BMP180;5953;52.372;9.918;2023-04-24T08:27:53;99395.00;;;16.50
11792;BMP180;5953;52.372;9.918;2023-04-24T08:30:21;99390.00;;;16.30
11792;BMP180;5953;52.372;9.918;2023-04-24T08:32:49;99395.00;;;16.40
11792;BMP180;5953;52.372;9.918;2023-04-24T08:35:19;99397.00;;;16.30
11792;BMP180;5953;52.372;9.918;2023-04-24T08:37:46;99394.00;;;16.40
11792;BMP180;5953;52.372;9.918;2023-04-24T08:40:15;99401.00;;;16.60
11792;BMP180;5953;52.372;9.918;2023-04-24T08:42:44;99382.00;;;16.40
11792;BMP180;5953;52.372;9.918;2023-04-24T08:45:12;99391.00;;;16.90
11792;BMP180;5953;52.372;9.918;2023-04-24T08:47:41;99400.00;;;17.10
11792;BMP180;5953;52.372;9.918;2023-04-24T08:50:10;99400.00;;;17.20
11792;BMP180;5953;52.372;9.918;2023-04-24T08:52:41;99382.00;;;17.30
11792;BMP180;5953;52.372;9.918;2023-04-24T08:55:09;99406.00;;;17.20
11792;BMP180;5953;52.372;9.918;2023-04-24T08:57:37;99406.00;;;17.20
11792;BMP180;5953;52.372;9.918;2023-04-24T09:00:07;99398.00;;;17.30
11792;BMP180;5953;52.372;9.918;2023-04-24T09:02:41;99417.00;;;17.30
11792;BMP180;5953;52.372;9.918;2023-04-24T09:05:10;99403.00;;;17.50
11792;BMP180;5953;52.372;9.918;2023-04-24T09:07:40;99405.00;;;17.50
11792;BMP180;5953;52.372;9.918;2023-04-24T09:10:09;99398.00;;;17.40
11792;BMP180;5953;52.372;9.918;2023-04-24T09:12:38;99433.00;;;17.10
11792;BMP180;5953;52.372;9.918;2023-04-24T09:15:07;99425.00;;;16.70
11792;BMP180;5953;52.372;9.918;2023-04-24T09:17:36;99424.00;;;17.10
11792;BMP180;5953;52.372;9.918;2023-04-24T09:20:04;99421.00;;;17.10
11792;BMP180;5953;52.372;9.918;2023-04-24T09:22:34;99425.00;;;16.50
11792;BMP180;5953;52.372;9.918;2023-04-24T09:25:04;99433.00;;;16.80
11792;BMP180;5953;52.372;9.918;2023-04-24T09:27:33;99429.00;;;16.90
11792;BMP180;5953;52.372;9.918;2023-04-24T09:30:02;99436.00;;;16.60
11792;BMP180;5953;52.372;9.918;2023-04-24T09:32:30;99432.00;;;16.50
11792;BMP180;5953;52.372;9.918;2023-04-24T09:35:07;99436.00;;;17.00
11792;BMP180;5953;52.372;9.918;2023-04-24T09:37:36;99437.00;;;17.00
11792;BMP180;5953;52.372;9.918;2023-04-24T09:40:18;99437.00;;;16.60
11792;BMP180;5953;52.372;9.918;2023-04-24T09:42:52;99444.00;;;16.80
11792;BMP180;5953;52.372;9.918;2023-04-24T09:45:20;99451.00;;;16.40
11792;BMP180;5953;52.372;9.918;2023-04-24T09:47:51;99434.00;;;16.30
11792;BMP180;5953;52.372;9.918;2023-04-24T09:50:21;99447.00;;;16.70
11792;BMP180;5953;52.372;9.918;2023-04-24T09:52:56;99443.00;;;16.40
11792;BMP180;5953;52.372;9.918;2023-04-24T09:55:25;99428.00;;;17.00
11792;BMP180;5953;52.372;9.918;2023-04-24T09:57:56;99441.00;;;16.90
11792;BMP180;5953;52.372;9.918;2023-04-24T10:00:27;99444.00;;;17.30
11792;BMP180;5953;52.372;9.918;2023-04-24T10:02:57;99441.00;;;16.90
11792;BMP180;5953;52.372;9.918;2023-04-24T10:05:29;99453.00;;;16.70
11792;BMP180;5953;52.372;9.918;2023-04-24T10:08:00;99448.00;;;16.60
11792;BMP180;5953;52.372;9.918;2023-04-24T10:10:30;99441.00;;;16.60
11792;BMP180;5953;52.372;9.918;2023-04-24T10:12:59;99443.00;;;16.20
11792;BMP180;5953;52.372;9.918;2023-04-24T10:15:27;99438.00;;;16.50
11792;BMP180;5953;52.372;9.918;2023-04-24T10:17:57;99436.00;;;16.60
11792;BMP180;5953;52.372;9.918;2023-04-24T10:20:28;99431.00;;;16.20
11792;BMP180;5953;52.372;9.918;2023-04-24T10:22:58;99443.00;;;16.50
11792;BMP180;5953;52.372;9.918;2023-04-24T10:25:27;99443.00;;;16.50
11792;BMP180;5953;52.372;9.918;2023-04-24T10:27:57;99429.00;;;16.20
11792;BMP180;5953;52.372;9.918;2023-04-24T10:30:27;99430.00;;;16.50
11792;BMP180;5953;52.372;9.918;2023-04-24T10:32:55;99446.00;;;16.60
11792;BMP180;5953;52.372;9.918;2023-04-24T10:35:23;99446.00;;;16.90
11792;BMP180;5953;52.372;9.918;2023-04-24T10:37:56;99445.00;;;16.60
11792;BMP180;5953;52.372;9.918;2023-04-24T10:40:27;99435.00;;;16.70
11792;BMP180;5953;52.372;9.918;2023-04-24T10:42:58;99443.00;;;16.20
11792;BMP180;5953;52.372;9.918;2023-04-24T10:45:26;99444.00;;;16.10
11792;BMP180;5953;52.372;9.918;2023-04-24T10:47:58;99438.00;;;16.70
11792;BMP180;5953;52.372;9.918;2023-04-24T10:50:43;99447.00;;;16.40
11792;BMP180;5953;52.372;9.918;2023-04-24T10:53:16;99443.00;;;16.50
11792;BMP180;5953;52.372;9.918;2023-04-24T10:55:47;99441.00;;;16.30
11792;BMP180;5953;52.372;9.918;2023-04-24T10:58:21;99444.00;;;16.60
11792;BMP180;5953;52.372;9.918;2023-04-24T11:00:56;99448.00;;;16.40
11792;BMP180;5953;52.372;9.918;2023-04-24T11:03:27;99443.00;;;16.80
11792;BMP180;5953;52.372;9.918;2023-04-24T11:05:57;99442.00;;;17.00
11792;BMP180;5953;52.372;9.918;2023-04-24T11:08:28;99455.00;;;16.80
11792;BMP180;5953;52.372;9.918;2023-04-24T11:11:07;99445.00;;;17.00
11792;BMP180;5953;52.372;9.918;2023-04-24T11:14:10;99449.00;;;17.00
11792;BMP180;5953;52.372;9.918;2023-04-24T11:16:42;99440.00;;;16.80
11792;BMP180;5953;52.372;9.918;2023-04-24T11:19:20;99447.00;;;17.00
11792;BMP180;5953;52.372;9.918;2023-04-24T11:21:56;99450.00;;;16.60
11792;BMP180;5953;52.372;9.918;2023-04-24T11:24:30;99440.00;;;16.50
11792;BMP180;5953;52.372;9.918;2023-04-24T11:27:06;99438.00;;;16.70
11792;BMP180;5953;52.372;9.918;2023-04-24T11:29:43;99459.00;;;16.40
11792;BMP180;5953;52.372;9.918;2023-04-24T11:32:18;99458.00;;;16.40
11792;BMP180;5953;52.372;9.918;2023-04-24T11:34:47;99463.00;;;16.40
11792;BMP180;5953;52.372;9.918;2023-04-24T11:37:16;99453.00;;;16.30
11792;BMP180;5953;52.372;9.918;2023-04-24T11:39:44;99456.00;;;16.00
11792;BMP180;5953;52.372;9.918;2023-04-24T11:42:14;99456.00;;;16.00
11792;BMP180;5953;52.372;9.918;2023-04-24T11:44:43;99454.00;;;16.30
11792;BMP180;5953;52.372;9.918;2023-04-24T11:47:13;99454.00;;;16.30
11792;BMP180;5953;52.372;9.918;2023-04-24T11:49:41;99448.00;;;16.00
11792;BMP180;5953;52.372;9.918;2023-04-24T11:52:09;99451.00;;;16.20
11792;BMP180;5953;52.372;9.918;2023-04-24T11:54:37;99459.00;;;16.30
11792;BMP180;5953;52.372;9.918;2023-04-24T11:57:06;99468.00;;;15.70
11792;BMP180;5953;52.372;9.918;2023-04-24T11:59:36;99451.00;;;16.40
11792;BMP180;5953;52.372;9.918;2023-04-24T12:02:06;99453.00;;;16.40
11792;BMP180;5953;52.372;9.918;2023-04-24T12:04:40;99443.00;;;16.40
11792;BMP180;5953;52.372;9.918;2023-04-24T12:07:09;99451.00;;;16.60
11792;BMP180;5953;52.372;9.918;2023-04-24T12:09:40;99460.00;;;16.90
11792;BMP180;5953;52.372;9.918;2023-04-24T12:12:09;99447.00;;;16.50
11792;BMP180;5953;52.372;9.918;2023-04-24T12:14:43;99462.00;;;16.80
11792;BMP180;5953;52.372;9.918;2023-04-24T12:17:12;99453.00;;;16.10
11792;BMP180;5953;52.372;9.918;2023-04-24T12:19:45;99447.00;;;16.50
11792;BMP180;5953;52.372;9.918;2023-04-24T12:22:13;99454.00;;;16.50
11792;BMP180;5953;52.372;9.918;2023-04-24T12:25:01;99469.00;;;16.60
11792;BMP180;5953;52.372;9.918;2023-04-24T12:27:30;99471.00;;;15.80
11792;BMP180;5953;52.372;9.918;2023-04-24T12:30:00;99488.00;;;16.20
11792;BMP180;5953;52.372;9.918;2023-04-24T12:32:29;99475.00;;;15.10
11792;BMP180;5953;52.372;9.918;2023-04-24T12:34:57;99494.00;;;15.70
11792;BMP180;5953;52.372;9.918;2023-04-24T12:37:26;99496.00;;;15.60
11792;BMP180;5953;52.372;9.918;2023-04-24T12:40:01;99502.00;;;15.20
11792;BMP180;5953;52.372;9.918;2023-04-24T12:42:30;99499.00;;;14.70
11792;BMP180;5953;52.372;9.918;2023-04-24T12:44:59;99500.00;;;15.30
11792;BMP180;5953;52.372;9.918;2023-04-24T12:47:30;99497.00;;;15.50
11792;BMP180;5953;52.372;9.918;2023-04-24T12:49:58;99504.00;;;15.20
11792;BMP180;5953;52.372;9.918;2023-04-24T12:52:28;99500.00;;;15.40
11792;BMP180;5953;52.372;9.918;2023-04-24T12:54:57;99508.00;;;15.20
11792;BMP180;5953;52.372;9.918;2023-04-24T12:57:26;99499.00;;;15.30
11792;BMP180;5953;52.372;9.918;2023-04-24T12:59:54;99498.00;;;15.60
11792;BMP180;5953;52.372;9.918;2023-04-24T13:02:22;99506.00;;;15.60
11792;BMP180;5953;52.372;9.918;2023-04-24T13:04:52;99514.00;;;15.80
11792;BMP180;5953;52.372;9.918;2023-04-24T13:07:21;99493.00;;;15.60
11792;BMP180;5953;52.372;9.918;2023-04-24T13:09:50;99518.00;;;15.30
11792;BMP180;5953;52.372;9.918;2023-04-24T13:12:18;99503.00;;;15.20
11792;BMP180;5953;52.372;9.918;2023-04-24T13:14:46;99520.00;;;15.20
11792;BMP180;5953;52.372;9.918;2023-04-24T13:17:15;99530.00;;;15.10
11792;BMP180;5953;52.372;9.918;2023-04-24T13:19:43;99539.00;;;15.10
11792;BMP180;5953;52.372;9.918;2023-04-24T13:22:13;99537.00;;;15.10
11792;BMP180;5953;52.372;9.918;2023-04-24T13:24:41;99545.00;;;15.20
11792;BMP180;5953;52.372;9.918;2023-04-24T13:27:09;99550.00;;;15.10
11792;BMP180;5953;52.372;9.918;2023-04-24T13:29:37;99545.00;;;14.80
11792;BMP180;5953;52.372;9.918;2023-04-24T13:32:06;99554.00;;;14.50
11792;BMP180;5953;52.372;9.918;2023-04-24T13:34:34;99571.00;;;14.40
11792;BMP180;5953;52.372;9.918;2023-04-24T13:37:02;99573.00;;;14.50
11792;BMP180;5953;52.372;9.918;2023-04-24T13:39:32;99564.00;;;14.60
11792;BMP180;5953;52.372;9.918;2023-04-24T13:42:00;99561.00;;;15.00
11792;BMP180;5953;52.372;9.918;2023-04-24T13:44:30;99575.00;;;14.50
11792;BMP180;5953;52.372;9.918;2023-04-24T13:46:59;99570.00;;;14.90
11792;BMP180;5953;52.372;9.918;2023-04-24T13:49:27;99563.00;;;14.90
11792;BMP180;5953;52.372;9.918;2023-04-24T13:51:55;99577.00;;;14.90
11792;BMP180;5953;52.372;9.918;2023-04-24T13:54:23;99590.00;;;14.70
11792;BMP180;5953;52.372;9.918;2023-04-24T13:56:57;99578.00;;;14.60
11792;BMP180;5953;52.372;9.918;2023-04-24T13:59:25;99608.00;;;14.20
11792;BMP180;5953;52.372;9.918;2023-04-24T14:01:53;99614.00;;;14.60
11792;BMP180;5953;52.372;9.918;2023-04-24T14:04:21;99616.00;;;14.60
11792;BMP180;5953;52.372;9.918;2023-04-24T14:06:49;99625.00;;;14.40
11792;BMP180;5953;52.372;9.918;2023-04-24T14:09:17;99622.00;;;14.30
11792;BMP180;5953;52.372;9.918;2023-04-24T14:11:45;99641.00;;;14.20
11792;BMP180;5953;52.372;9.918;2023-04-24T14:14:15;99634.00;;;14.00
11792;BMP180;5953;52.372;9.918;2023-04-24T14:16:43;99641.00;;;13.80
11792;BMP180;5953;52.372;9.918;2023-04-24T14:19:10;99645.00;;;14.00
11792;BMP180;5953;52.372;9.918;2023-04-24T14:21:38;99644.00;;;13.80
11792;BMP180;5953;52.372;9.918;2023-04-24T14:24:07;99637.00;;;13.90
11792;BMP180;5953;52.372;9.918;2023-04-24T14:26:35;99647.00;;;14.00
11792;BMP180;5953;52.372;9.918;2023-04-24T14:29:03;99659.00;;;13.80
11792;BMP180;5953;52.372;9.918;2023-04-24T14:31:42;99643.00;;;14.00